^^
Station Historical Data
 
Daily Summary for September 25, 2017 Units:  English    Metric   Both
« Previous Day
Next Day »
Daily Weekly Monthly Yearly Custom
  Current: High: Low: Average:
Temperature: 77.0 °F 87.4 °F 72.1 °F 78.1 °F
Dew Point: 75.1 °F 76.7 °F 70.2 °F 73.3 °F
Humidity: 94% 97% 68% 86%
Wind Speed: 0.0mph 11.5mph 0.0mph 2.9mph
Wind Gust: 0.0mph 11.5mph - -
WindCalm - - East
Pressure: 29.88 in 29.97 in 29.88 in -
Precipitation: 0.15 in      
Historical Graphs
 
 
Tabular Data for September 25, 2017
Time Temperature Dew Point Pressure Wind Wind Speed Wind Gust Humidity Rainfall Rate (Hourly) Conditions
00:02 72.7 °F 71.8 °F 29.93 in NNE 2.3 mph 2.3 mph 97% 0.00 in RA
00:12 72.7 °F 71.8 °F 29.92 in NNE 3.5 mph 3.5 mph 97% 0.00 in CLR
00:17 72.7 °F 71.5 °F 29.92 in NNE 3.5 mph 3.5 mph 96% 0.00 in CLR
00:22 72.7 °F 71.5 °F 29.92 in North 2.3 mph 2.3 mph 96% 0.00 in CLR
00:27 72.7 °F 71.5 °F 29.92 in NE 3.5 mph 3.5 mph 96% 0.00 in CLR
00:32 72.7 °F 71.5 °F 29.91 in North 2.3 mph 2.3 mph 96% 0.00 in CLR
00:37 72.7 °F 71.5 °F 29.92 in North 2.3 mph 2.3 mph 96% 0.00 in CLR
00:42 72.7 °F 71.5 °F 29.91 in North 1.2 mph 2.0 mph 96% 0.00 in CLR
00:52 72.5 °F 71.3 °F 29.91 in NNE 3.5 mph 3.5 mph 96% 0.00 in CLR
00:57 72.5 °F 71.3 °F 29.91 in NNE 3.5 mph 3.5 mph 96% 0.00 in CLR
01:02 72.3 °F 71.1 °F 29.91 in North 2.3 mph 2.3 mph 96% 0.00 in CLR
01:07 72.3 °F 71.1 °F 29.91 in North 2.3 mph 2.3 mph 96% 0.00 in CLR
01:12 72.3 °F 71.1 °F 29.91 in North 2.3 mph 2.3 mph 96% 0.00 in CLR
01:17 72.3 °F 71.1 °F 29.91 in North 3.5 mph 3.5 mph 96% 0.00 in CLR
01:22 72.3 °F 71.1 °F 29.91 in NNE 1.2 mph 2.0 mph 96% 0.00 in CLR
01:27 72.3 °F 71.1 °F 29.91 in North 2.3 mph 2.3 mph 96% 0.00 in CLR
01:32 72.3 °F 71.1 °F 29.91 in NE 2.3 mph 2.3 mph 96% 0.00 in CLR
01:37 72.3 °F 71.1 °F 29.91 in NE 1.2 mph 1.2 mph 96% 0.00 in CLR
01:42 72.3 °F 70.8 °F 29.91 in North 2.3 mph 2.3 mph 95% 0.00 in CLR
01:47 72.3 °F 70.8 °F 29.91 in NE 1.2 mph 2.0 mph 95% 0.00 in CLR
01:52 72.3 °F 70.8 °F 29.91 in NE 1.2 mph 1.2 mph 95% 0.00 in CLR
01:57 72.1 °F 70.6 °F 29.91 in NNE 4.0 mph 4.0 mph 95% 0.00 in CLR
02:02 72.1 °F 70.6 °F 29.91 in NE 3.5 mph 3.5 mph 95% 0.00 in CLR
02:07 72.1 °F 70.6 °F 29.91 in NE 3.5 mph 3.5 mph 95% 0.00 in CLR
02:12 72.1 °F 70.3 °F 29.91 in NE 3.5 mph 3.5 mph 94% 0.00 in CLR
02:17 72.1 °F 70.3 °F 29.91 in ENE 3.5 mph 3.5 mph 94% 0.00 in CLR
02:22 72.1 °F 70.3 °F 29.91 in East 2.9 mph 2.9 mph 94% 0.00 in CLR
02:27 72.1 °F 70.3 °F 29.91 in East 2.9 mph 2.9 mph 94% 0.00 in CLR
02:32 72.1 °F 70.3 °F 29.91 in NNE 3.5 mph 3.5 mph 94% 0.00 in CLR
02:37 72.3 °F 70.2 °F 29.91 in East 3.5 mph 3.5 mph 93% 0.00 in CLR
02:42 72.3 °F 70.2 °F 29.91 in NNE 2.3 mph 2.3 mph 93% 0.00 in CLR
02:47 72.3 °F 70.2 °F 29.91 in East 3.5 mph 3.5 mph 93% 0.00 in CLR
02:52 72.3 °F 70.2 °F 29.91 in East 1.2 mph 2.9 mph 93% 0.00 in CLR
02:57 72.9 °F 70.4 °F 29.91 in ESE 2.9 mph 2.9 mph 92% 0.00 in CLR
03:02 72.9 °F 70.4 °F 29.91 in East 3.5 mph 3.5 mph 92% 0.00 in CLR
03:17 73.0 °F 70.9 °F 29.91 in East 6.9 mph 6.9 mph 93% 0.00 in CLR
03:22 73.2 °F 71.1 °F 29.91 in East 3.5 mph 3.5 mph 93% 0.00 in CLR
03:27 73.2 °F 71.1 °F 29.92 in ESE 2.9 mph 2.9 mph 93% 0.00 in CLR
03:32 73.6 °F 71.4 °F 29.91 in East 8.1 mph 8.1 mph 93% 0.00 in CLR
03:37 73.6 °F 71.4 °F 29.91 in East 4.9 mph 4.9 mph 93% 0.00 in CLR
03:47 73.8 °F 71.6 °F 29.91 in East 4.0 mph 4.0 mph 93% 0.00 in CLR
03:52 73.8 °F 71.3 °F 29.91 in ESE 4.0 mph 4.0 mph 92% 0.00 in CLR
03:57 73.9 °F 71.5 °F 29.91 in ENE 4.0 mph 4.0 mph 92% 0.00 in CLR
04:02 73.9 °F 71.5 °F 29.91 in East 4.0 mph 4.0 mph 92% 0.00 in CLR
04:07 73.9 °F 71.5 °F 29.91 in East 8.1 mph 8.1 mph 92% 0.00 in CLR
04:12 73.9 °F 71.5 °F 29.90 in East 5.8 mph 5.8 mph 92% 0.00 in CLR
04:17 73.9 °F 71.5 °F 29.90 in East 3.5 mph 4.0 mph 92% 0.00 in CLR
04:22 73.9 °F 71.5 °F 29.90 in ENE 3.5 mph 3.5 mph 92% 0.00 in CLR
04:27 73.9 °F 71.5 °F 29.90 in East 6.9 mph 6.9 mph 92% 0.00 in CLR
04:32 73.9 °F 71.5 °F 29.90 in ENE 6.0 mph 6.0 mph 92% 0.00 in CLR
04:37 73.9 °F 71.5 °F 29.91 in ENE 3.5 mph 4.0 mph 92% 0.00 in CLR
04:42 73.9 °F 71.5 °F 29.91 in East 4.9 mph 4.9 mph 92% 0.00 in CLR
04:47 73.9 °F 71.5 °F 29.91 in ESE 4.6 mph 4.6 mph 92% 0.00 in CLR
04:52 73.9 °F 71.5 °F 29.91 in East 6.9 mph 6.9 mph 92% 0.00 in CLR
04:57 73.9 °F 71.5 °F 29.91 in ESE 4.0 mph 4.9 mph 92% 0.00 in CLR
05:02 74.1 °F 71.6 °F 29.91 in East 3.5 mph 4.9 mph 92% 0.00 in CLR
05:07 74.1 °F 71.6 °F 29.91 in East 3.5 mph 4.9 mph 92% 0.00 in CLR
05:12 74.1 °F 71.6 °F 29.92 in ESE 6.9 mph 6.9 mph 92% 0.00 in CLR
05:17 74.1 °F 71.3 °F 29.92 in ESE 4.9 mph 4.9 mph 91% 0.00 in CLR
05:22 74.1 °F 71.3 °F 29.92 in ENE 4.6 mph 4.6 mph 91% 0.00 in CLR
05:27 74.1 °F 71.3 °F 29.92 in ENE 3.5 mph 3.5 mph 91% 0.00 in CLR
05:32 74.1 °F 71.3 °F 29.92 in ESE 4.6 mph 4.6 mph 91% 0.00 in CLR
05:37 74.1 °F 71.3 °F 29.92 in ENE 9.2 mph 9.2 mph 91% 0.00 in CLR
05:38 74.1 °F 71.3 °F 29.93 in East 9.2 mph 9.2 mph 91% 0.00 in CLR
05:43 74.1 °F 71.0 °F 29.93 in East 11.5 mph 11.5 mph 90% 0.00 in CLR
05:48 74.1 °F 71.3 °F 29.92 in ESE 4.0 mph 4.9 mph 91% 0.01 in RA
05:53 73.8 °F 71.0 °F 29.93 in East 6.0 mph 6.0 mph 91% 0.01 in RA
05:58 73.6 °F 71.1 °F 29.93 in ENE 2.3 mph 2.3 mph 92% 0.01 in
05:59 73.6 °F 71.1 °F 29.93 in ENE 2.3 mph 2.3 mph 92% 0.01 in
06:04 73.4 °F 70.9 °F 29.93 in ENE 3.5 mph 3.5 mph 92% 0.02 in RA
06:09 73.2 °F 70.8 °F 29.93 in Calm   0.9 mph 92% 0.02 in RA
06:14 73.0 °F 70.9 °F 29.93 in NE 2.3 mph 2.3 mph 93% 0.02 in
06:19 73.0 °F 70.9 °F 29.93 in NE 2.3 mph 2.3 mph 93% 0.02 in
06:24 72.7 °F 70.9 °F 29.93 in Calm   0.9 mph 94% 0.02 in
06:29 72.7 °F 70.9 °F 29.94 in Calm     94% 0.02 in
06:34 72.7 °F 70.9 °F 29.94 in North 3.5 mph   94% 0.02 in
06:39 72.3 °F 70.8 °F 29.94 in North 3.5 mph 3.5 mph 95% 0.02 in
06:44 72.3 °F 70.8 °F 29.94 in Calm   0.9 mph 95% 0.02 in
06:49 72.3 °F 70.8 °F 29.94 in North 3.5 mph 3.5 mph 95% 0.01 in
06:54 72.3 °F 70.8 °F 29.94 in NNE 2.3 mph 2.3 mph 95% 0.01 in
06:59 72.5 °F 71.0 °F 29.95 in NNE 3.5 mph 3.5 mph 95% 0.01 in
07:04 72.7 °F 71.5 °F 29.95 in North 2.3 mph 2.3 mph 96% 0.00 in CLR
07:09 72.7 °F 71.5 °F 29.95 in NNE 0.9 mph 0.9 mph 96% 0.00 in CLR
07:14 72.9 °F 71.7 °F 29.95 in NE 3.5 mph 3.5 mph 96% 0.00 in CLR
07:19 72.9 °F 71.7 °F 29.95 in NE 1.2 mph 1.2 mph 96% 0.00 in CLR
07:24 72.9 °F 71.7 °F 29.95 in NE 1.2 mph 1.2 mph 96% 0.00 in CLR
07:29 73.0 °F 71.5 °F 29.95 in NE 2.9 mph 2.9 mph 95% 0.00 in CLR
07:34 73.0 °F 71.5 °F 29.95 in Calm   0.9 mph 95% 0.00 in CLR
07:39 73.2 °F 71.7 °F 29.96 in NE 2.3 mph 2.3 mph 95% 0.00 in CLR
07:44 73.4 °F 71.9 °F 29.95 in ENE 3.5 mph 3.5 mph 95% 0.00 in CLR
07:49 73.9 °F 72.4 °F 29.95 in ENE 6.0 mph 6.0 mph 95% 0.00 in CLR
07:54 74.3 °F 72.5 °F 29.95 in North 3.5 mph 3.5 mph 94% 0.00 in CLR
07:59 74.7 °F 72.5 °F 29.95 in North 4.6 mph 4.6 mph 93% 0.00 in CLR
08:09 74.8 °F 72.7 °F 29.95 in NE 2.3 mph 2.3 mph 93% 0.00 in CLR
08:14 75.0 °F 72.9 °F 29.95 in NNE 2.3 mph 2.3 mph 93% 0.00 in CLR
08:19 75.0 °F 72.9 °F 29.95 in NE 2.3 mph 2.3 mph 93% 0.00 in CLR
08:24 75.2 °F 72.7 °F 29.96 in East 4.6 mph 4.6 mph 92% 0.00 in CLR
08:29 75.4 °F 72.9 °F 29.96 in North 3.5 mph 3.5 mph 92% 0.00 in CLR
08:34 75.6 °F 73.1 °F 29.96 in North 2.3 mph 2.3 mph 92% 0.00 in CLR
08:39 75.6 °F 73.1 °F 29.96 in ENE 4.0 mph 4.0 mph 92% 0.00 in CLR
08:44 75.7 °F 72.9 °F 29.96 in NNE 3.5 mph 3.5 mph 91% 0.00 in CLR
08:49 75.7 °F 72.9 °F 29.97 in NE 3.5 mph 3.5 mph 91% 0.00 in CLR
08:54 75.7 °F 72.9 °F 29.97 in North 2.3 mph 2.3 mph 91% 0.00 in CLR
08:57 75.7 °F 72.9 °F 29.97 in NE 3.5 mph 3.5 mph 91% 0.00 in CLR
09:07 76.3 °F 73.5 °F 29.97 in NNE 3.5 mph 3.5 mph 91% 0.00 in CLR
09:12 76.3 °F 73.1 °F 29.97 in NE 2.3 mph 2.3 mph 90% 0.00 in CLR
09:17 76.5 °F 73.3 °F 29.97 in NNE 1.2 mph 2.0 mph 90% 0.00 in CLR
09:22 76.5 °F 73.3 °F 29.97 in NNE 1.2 mph 2.0 mph 90% 0.00 in CLR
09:27 76.6 °F 73.5 °F 29.97 in NNE 3.5 mph 3.5 mph 90% 0.00 in CLR
09:32 76.6 °F 73.5 °F 29.97 in NNE 4.6 mph 4.6 mph 90% 0.01 in RA
09:37 76.5 °F 73.6 °F 29.97 in NNE 2.3 mph 2.3 mph 91% 0.02 in RA
09:42 76.5 °F 73.6 °F 29.97 in North 3.5 mph 3.5 mph 91% 0.02 in RA
09:47 76.6 °F 74.1 °F 29.97 in North 4.0 mph 4.0 mph 92% 0.02 in
09:52 76.8 °F 74.3 °F 29.97 in North 3.5 mph 3.5 mph 92% 0.02 in
09:57 77.0 °F 74.5 °F 29.97 in NE 3.5 mph 3.5 mph 92% 0.02 in
10:02 77.2 °F 74.3 °F 29.97 in NE 3.5 mph 3.5 mph 91% 0.02 in
10:07 77.2 °F 74.3 °F 29.97 in North 2.3 mph 2.3 mph 91% 0.02 in
10:12 77.5 °F 74.7 °F 29.97 in NNE 2.3 mph 2.3 mph 91% 0.02 in
10:17 77.7 °F 74.6 °F 29.97 in ENE 4.0 mph 4.0 mph 90% 0.02 in
10:22 77.7 °F 74.6 °F 29.97 in ENE 4.0 mph 4.0 mph 90% 0.02 in
10:27 78.3 °F 74.7 °F 29.97 in ENE 2.3 mph 2.3 mph 89% 0.02 in
10:32 78.6 °F 74.8 °F 29.96 in SE 6.9 mph 6.9 mph 88% 0.01 in
10:37 79.5 °F 75.3 °F 29.96 in NNE 4.6 mph 4.6 mph 87% 0.00 in CLR
10:42 80.6 °F 75.7 °F 29.95 in NNE 5.8 mph 5.8 mph 85% 0.00 in CLR
10:47 81.3 °F 74.9 °F 29.95 in SE 9.2 mph 9.2 mph 81% 0.00 in CLR
10:52 81.9 °F 75.1 °F 29.95 in ENE 5.8 mph 5.8 mph 80% 0.00 in CLR
10:57 82.2 °F 75.8 °F 29.95 in ESE 4.6 mph 4.6 mph 81% 0.00 in CLR
11:02 82.9 °F 75.8 °F 29.96 in East 3.5 mph 4.0 mph 79% 0.00 in CLR
11:07 82.9 °F 75.8 °F 29.96 in East 3.5 mph 4.0 mph 79% 0.00 in CLR
11:12 83.1 °F 74.0 °F 29.96 in SE 4.6 mph 4.9 mph 74% 0.00 in CLR
11:17 83.5 °F 75.1 °F 29.96 in ESE 4.0 mph 4.9 mph 76% 0.00 in CLR
11:22 83.7 °F 75.3 °F 29.96 in SE 5.8 mph 5.8 mph 76% 0.00 in CLR
11:27 83.7 °F 74.1 °F 29.95 in SE 4.6 mph 4.9 mph 73% 0.00 in CLR
11:32 83.8 °F 75.5 °F 29.96 in ENE 2.3 mph 4.0 mph 76% 0.00 in CLR
11:37 84.2 °F 74.6 °F 29.95 in SE 4.0 mph 4.0 mph 73% 0.00 in CLR
11:42 84.6 °F 74.9 °F 29.95 in SE 3.5 mph 3.5 mph 73% 0.00 in CLR
11:47 84.7 °F 74.7 °F 29.95 in SE 3.5 mph 3.5 mph 72% 0.00 in CLR
11:52 85.1 °F 75.5 °F 29.95 in SSE 1.2 mph 2.9 mph 73% 0.00 in CLR
11:57 85.6 °F 75.2 °F 29.95 in SSE 2.3 mph 2.3 mph 71% 0.00 in CLR
12:02 85.8 °F 75.3 °F 29.95 in East 3.5 mph 3.5 mph 71% 0.00 in CLR
12:07 86.0 °F 75.1 °F 29.94 in East 6.9 mph 6.9 mph 70% 0.00 in CLR
12:12 85.6 °F 74.7 °F 29.93 in ESE 4.6 mph 4.9 mph 70% 0.00 in CLR
12:17 86.0 °F 75.1 °F 29.93 in ESE 4.6 mph 4.6 mph 70% 0.00 in CLR
12:22 86.4 °F 75.4 °F 29.94 in SE 1.2 mph 2.9 mph 70% 0.00 in CLR
12:27 86.4 °F 75.0 °F 29.94 in East 3.5 mph 3.5 mph 69% 0.00 in CLR
12:32 86.7 °F 75.3 °F 29.94 in SSE 2.3 mph 2.3 mph 69% 0.00 in CLR
12:37 86.5 °F 76.0 °F 29.94 in SE 4.6 mph 4.6 mph 71% 0.00 in CLR
12:42 86.2 °F 75.2 °F 29.93 in ESE 3.5 mph 3.5 mph 70% 0.00 in CLR
12:47 85.6 °F 74.3 °F 29.93 in SE 4.6 mph 4.6 mph 69% 0.00 in CLR
12:52 85.5 °F 74.1 °F 29.93 in East 3.5 mph 3.5 mph 69% 0.00 in CLR
12:57 85.3 °F 73.5 °F 29.93 in ENE 3.5 mph 3.5 mph 68% 0.00 in CLR
13:02 85.3 °F 74.4 °F 29.92 in SE 3.5 mph 3.5 mph 70% 0.00 in CLR
13:07 85.3 °F 74.0 °F 29.91 in SE 3.5 mph 3.5 mph 69% 0.00 in CLR
13:12 85.8 °F 74.0 °F 29.91 in ESE 3.5 mph 3.5 mph 68% 0.00 in CLR
13:17 86.4 °F 74.5 °F 29.92 in SSE 1.2 mph 2.0 mph 68% 0.00 in CLR
13:22 86.4 °F 74.5 °F 29.92 in SSE 3.5 mph 3.5 mph 68% 0.00 in CLR
13:27 86.2 °F 75.2 °F 29.92 in Calm     70% 0.00 in CLR
13:32 85.8 °F 75.3 °F 29.92 in Calm     71% 0.00 in CLR
13:37 85.8 °F 74.9 °F 29.91 in South 1.2 mph   70% 0.00 in CLR
13:42 85.6 °F 75.6 °F 29.91 in SSE 3.5 mph 3.5 mph 72% 0.00 in CLR
13:47 85.1 °F 75.5 °F 29.91 in SW 1.2 mph 1.2 mph 73% 0.00 in CLR
13:52 85.5 °F 75.8 °F 29.91 in Calm     73% 0.00 in CLR
13:57 85.5 °F 75.8 °F 29.91 in Calm     73% 0.00 in CLR
14:02 85.8 °F 76.2 °F 29.91 in Calm     73% 0.00 in CLR
14:07 85.6 °F 76.0 °F 29.91 in South 3.5 mph   73% 0.00 in CLR
14:12 85.8 °F 76.2 °F 29.91 in SSE 1.2 mph 1.2 mph 73% 0.00 in CLR
14:17 86.2 °F 75.7 °F 29.90 in SSE 0.9 mph 0.9 mph 71% 0.00 in CLR
14:22 86.4 °F 75.8 °F 29.90 in South 2.3 mph 2.3 mph 71% 0.00 in CLR
14:28 86.5 °F 76.0 °F 29.90 in South 2.3 mph 2.3 mph 71% 0.00 in CLR
14:33 86.5 °F 76.0 °F 29.90 in SSE 1.0 mph 1.0 mph 71% 0.00 in CLR
14:38 86.5 °F 75.9 °F 29.90 in South 1.0 mph 2.0 mph 71% 0.00 in CLR
14:42 86.2 °F 76.1 °F 29.90 in SSW 2.0 mph 2.0 mph 72% 0.00 in CLR
14:48 85.6 °F 76.0 °F 29.90 in South 3.5 mph 3.5 mph 73% 0.00 in CLR
14:53 86.2 °F 76.5 °F 29.89 in SSW 1.0 mph 3.0 mph 73% 0.00 in CLR
14:58 86.5 °F 76.0 °F 29.89 in South 2.3 mph 2.3 mph 71% 0.00 in CLR
15:03 86.4 °F 76.3 °F 29.89 in SW 4.9 mph 4.9 mph 72% 0.00 in CLR
15:07 86.2 °F 76.1 °F 29.89 in WSW 2.3 mph 2.3 mph 72% 0.00 in CLR
15:13 86.2 °F 76.1 °F 29.89 in WNW 1.0 mph   72% 0.00 in CLR
15:18 86.2 °F 76.1 °F 29.89 in WNW 1.0 mph   72% 0.00 in CLR
15:22 86.5 °F 76.4 °F 29.89 in SW 1.2 mph 1.2 mph 72% 0.00 in CLR
15:27 86.5 °F 76.4 °F 29.88 in South 1.2 mph 1.2 mph 72% 0.00 in CLR
15:32 87.3 °F 76.7 °F 29.88 in WSW 1.2 mph 1.2 mph 71% 0.00 in CLR
15:37 87.3 °F 76.3 °F 29.89 in SSW 2.0 mph 2.0 mph 70% 0.00 in CLR
15:42 87.4 °F 76.4 °F 29.88 in SSE 3.5 mph 3.5 mph 70% 0.00 in CLR
15:47 87.3 °F 76.3 °F 29.89 in SSE 2.3 mph 2.3 mph 70% 0.00 in CLR
15:57 87.3 °F 76.3 °F 29.89 in South 1.2 mph 1.2 mph 70% 0.00 in CLR
16:02 86.7 °F 76.2 °F 29.89 in South 0.9 mph 0.9 mph 71% 0.00 in CLR
16:08 86.4 °F 76.3 °F 29.88 in SE 5.8 mph 5.8 mph 72% 0.00 in CLR
16:13 85.6 °F 74.7 °F 29.89 in ENE 2.0 mph 3.0 mph 70% 0.00 in CLR
16:18 85.6 °F 74.7 °F 29.89 in North 2.0 mph 3.0 mph 70% 0.00 in CLR
16:22 83.5 °F 74.3 °F 29.89 in North 2.3 mph 2.9 mph 74% 0.00 in CLR
16:27 82.6 °F 73.4 °F 29.89 in East 4.9 mph 4.9 mph 74% 0.00 in CLR
16:32 82.0 °F 73.7 °F 29.89 in North 3.5 mph 3.5 mph 76% 0.00 in CLR
16:37 81.5 °F 74.4 °F 29.89 in NE 2.0 mph 4.0 mph 79% 0.00 in CLR
16:43 80.2 °F 74.2 °F 29.89 in NE 3.5 mph 3.5 mph 82% 0.02 in RA
16:48 79.0 °F 73.7 °F 29.89 in Calm   2.0 mph 84% 0.07 in RA
16:52 78.4 °F 74.5 °F 29.90 in North 1.0 mph 1.0 mph 88% 0.00 in RA
16:58 77.7 °F 73.5 °F 29.89 in Calm     87% 0.00 in RA
17:03 77.5 °F 74.0 °F 29.89 in Calm     89% 0.11 in RA
17:08 77.5 °F 74.4 °F 29.90 in Calm     90% 0.11 in RA
17:18 77.5 °F 74.7 °F 29.89 in Calm   1.0 mph 91% 0.00 in
17:23 77.5 °F 74.7 °F 29.89 in Calm     91% 0.00 in
17:28 77.7 °F 75.2 °F 29.88 in Calm     92% 0.11 in
17:32 77.9 °F 75.1 °F 29.88 in Calm     91% 0.11 in
17:37 77.7 °F 74.6 °F 29.88 in Calm     90% 0.11 in
17:42 77.7 °F 74.9 °F 29.88 in Calm     91% 0.09 in
17:47 77.9 °F 75.4 °F 29.88 in Calm     92% 0.04 in
17:52 78.1 °F 75.6 °F 29.88 in Calm     92% 0.02 in
17:57 78.4 °F 75.6 °F 29.88 in Calm     91% 0.01 in
18:03 78.8 °F 75.6 °F 29.88 in Calm     90% 0.00 in
18:08 79.2 °F 75.6 °F 29.88 in Calm     89% 0.00 in CLR
18:13 79.0 °F 75.1 °F 29.88 in Calm     88% 0.00 in
18:18 78.8 °F 75.3 °F 29.88 in Calm     89% 0.00 in
18:22 78.5 °F 75.3 °F 29.88 in Calm     90% 0.00 in
18:27 78.3 °F 75.1 °F 29.88 in Calm     90% 0.00 in CLR
18:32 78.3 °F 75.4 °F 29.88 in Calm     91% 0.00 in CLR
18:37 78.3 °F 75.4 °F 29.88 in Calm     91% 0.00 in CLR
18:42 77.4 °F 75.2 °F 29.88 in Calm     93% 0.00 in CLR
18:47 77.2 °F 75.0 °F 29.88 in Calm     93% 0.00 in CLR
18:53 77.2 °F 75.3 °F 29.89 in Calm     94% 0.00 in
18:58 77.0 °F 75.1 °F 29.88 in Calm     94% 0.00 in
Panama City, Florida, USA
Compliments of Weather Underground - 3.5 mb